sensor_id;sensor_type;location;lat;lon;timestamp;P1;durP1;ratioP1;P2;durP2;ratioP2
59052;SDS011;44843;44.728;10.396;2024-02-04T00:02:05;11.88;;;6.15;;
59052;SDS011;44843;44.728;10.396;2024-02-04T00:04:32;14.77;;;6.95;;
59052;SDS011;44843;44.728;10.396;2024-02-04T00:06:58;11.65;;;5.78;;
59052;SDS011;44843;44.728;10.396;2024-02-04T00:09:23;14.15;;;7.22;;
59052;SDS011;44843;44.728;10.396;2024-02-04T00:11:49;13.43;;;6.03;;
59052;SDS011;44843;44.728;10.396;2024-02-04T00:14:14;11.95;;;6.30;;
59052;SDS011;44843;44.728;10.396;2024-02-04T00:16:40;11.98;;;6.13;;
59052;SDS011;44843;44.728;10.396;2024-02-04T00:19:05;12.40;;;6.22;;
59052;SDS011;44843;44.728;10.396;2024-02-04T00:21:30;12.18;;;6.47;;
59052;SDS011;44843;44.728;10.396;2024-02-04T00:23:56;14.05;;;6.47;;
59052;SDS011;44843;44.728;10.396;2024-02-04T00:26:21;16.08;;;7.78;;
59052;SDS011;44843;44.728;10.396;2024-02-04T00:28:46;13.73;;;7.50;;
59052;SDS011;44843;44.728;10.396;2024-02-04T00:31:12;19.85;;;8.27;;
59052;SDS011;44843;44.728;10.396;2024-02-04T00:33:37;14.40;;;7.43;;
59052;SDS011;44843;44.728;10.396;2024-02-04T00:36:02;18.75;;;8.27;;
59052;SDS011;44843;44.728;10.396;2024-02-04T00:38:28;13.38;;;6.72;;
59052;SDS011;44843;44.728;10.396;2024-02-04T00:40:53;12.02;;;6.32;;
59052;SDS011;44843;44.728;10.396;2024-02-04T00:43:19;13.40;;;6.18;;
59052;SDS011;44843;44.728;10.396;2024-02-04T00:45:45;12.75;;;6.10;;
59052;SDS011;44843;44.728;10.396;2024-02-04T00:48:11;14.98;;;6.70;;
59052;SDS011;44843;44.728;10.396;2024-02-04T00:50:36;13.55;;;6.32;;
59052;SDS011;44843;44.728;10.396;2024-02-04T00:53:01;14.25;;;6.35;;
59052;SDS011;44843;44.728;10.396;2024-02-04T00:55:27;12.13;;;7.43;;
59052;SDS011;44843;44.728;10.396;2024-02-04T00:57:52;13.02;;;6.20;;
59052;SDS011;44843;44.728;10.396;2024-02-04T01:00:18;13.30;;;5.88;;
59052;SDS011;44843;44.728;10.396;2024-02-04T01:02:43;13.85;;;6.13;;
59052;SDS011;44843;44.728;10.396;2024-02-04T01:05:09;19.52;;;7.25;;
59052;SDS011;44843;44.728;10.396;2024-02-04T01:07:34;15.07;;;7.53;;
59052;SDS011;44843;44.728;10.396;2024-02-04T01:10:00;14.43;;;7.75;;
59052;SDS011;44843;44.728;10.396;2024-02-04T01:12:25;14.35;;;6.95;;
59052;SDS011;44843;44.728;10.396;2024-02-04T01:14:50;14.32;;;7.88;;
59052;SDS011;44843;44.728;10.396;2024-02-04T01:17:16;14.68;;;7.32;;
59052;SDS011;44843;44.728;10.396;2024-02-04T01:19:41;18.45;;;7.90;;
59052;SDS011;44843;44.728;10.396;2024-02-04T01:22:06;17.10;;;8.93;;
59052;SDS011;44843;44.728;10.396;2024-02-04T01:24:32;13.35;;;7.10;;
59052;SDS011;44843;44.728;10.396;2024-02-04T01:26:57;13.50;;;7.05;;
59052;SDS011;44843;44.728;10.396;2024-02-04T01:29:23;13.10;;;6.70;;
59052;SDS011;44843;44.728;10.396;2024-02-04T01:31:48;12.23;;;6.25;;
59052;SDS011;44843;44.728;10.396;2024-02-04T01:34:13;13.82;;;5.72;;
59052;SDS011;44843;44.728;10.396;2024-02-04T01:36:39;12.73;;;6.00;;
59052;SDS011;44843;44.728;10.396;2024-02-04T01:39:04;11.75;;;6.25;;
59052;SDS011;44843;44.728;10.396;2024-02-04T01:41:30;11.38;;;5.95;;
59052;SDS011;44843;44.728;10.396;2024-02-04T01:43:55;5.85;;;4.38;;
59052;SDS011;44843;44.728;10.396;2024-02-04T01:46:21;8.40;;;4.70;;
59052;SDS011;44843;44.728;10.396;2024-02-04T01:48:47;7.07;;;4.53;;
59052;SDS011;44843;44.728;10.396;2024-02-04T01:51:13;10.35;;;4.57;;
59052;SDS011;44843;44.728;10.396;2024-02-04T01:53:42;11.30;;;5.28;;
59052;SDS011;44843;44.728;10.396;2024-02-04T01:56:10;10.65;;;4.85;;
59052;SDS011;44843;44.728;10.396;2024-02-04T01:58:37;10.02;;;4.25;;
59052;SDS011;44843;44.728;10.396;2024-02-04T02:01:03;7.80;;;4.38;;
59052;SDS011;44843;44.728;10.396;2024-02-04T02:03:29;5.95;;;4.10;;
59052;SDS011;44843;44.728;10.396;2024-02-04T02:05:56;8.88;;;4.38;;
59052;SDS011;44843;44.728;10.396;2024-02-04T02:08:23;8.70;;;5.05;;
59052;SDS011;44843;44.728;10.396;2024-02-04T02:10:48;11.40;;;5.90;;
59052;SDS011;44843;44.728;10.396;2024-02-04T02:13:22;10.38;;;5.65;;
59052;SDS011;44843;44.728;10.396;2024-02-04T02:15:53;11.52;;;6.03;;
59052;SDS011;44843;44.728;10.396;2024-02-04T02:18:29;14.27;;;6.93;;
59052;SDS011;44843;44.728;10.396;2024-02-04T02:26:21;12.23;;;6.07;;
59052;SDS011;44843;44.728;10.396;2024-02-04T02:28:47;14.02;;;7.25;;
59052;SDS011;44843;44.728;10.396;2024-02-04T02:31:13;13.77;;;7.72;;
59052;SDS011;44843;44.728;10.396;2024-02-04T02:33:38;16.90;;;8.68;;
59052;SDS011;44843;44.728;10.396;2024-02-04T02:36:06;21.17;;;10.00;;
59052;SDS011;44843;44.728;10.396;2024-02-04T02:38:43;23.77;;;9.30;;
59052;SDS011;44843;44.728;10.396;2024-02-04T02:41:16;21.00;;;10.18;;
59052;SDS011;44843;44.728;10.396;2024-02-04T02:43:43;20.95;;;10.18;;
59052;SDS011;44843;44.728;10.396;2024-02-04T02:46:09;18.00;;;9.38;;
59052;SDS011;44843;44.728;10.396;2024-02-04T02:48:35;18.80;;;10.35;;
59052;SDS011;44843;44.728;10.396;2024-02-04T02:51:00;19.23;;;9.68;;
59052;SDS011;44843;44.728;10.396;2024-02-04T02:53:26;18.73;;;9.82;;
59052;SDS011;44843;44.728;10.396;2024-02-04T02:55:51;22.48;;;9.65;;
59052;SDS011;44843;44.728;10.396;2024-02-04T02:58:16;19.38;;;9.15;;
59052;SDS011;44843;44.728;10.396;2024-02-04T03:00:42;19.60;;;9.07;;
59052;SDS011;44843;44.728;10.396;2024-02-04T03:03:07;17.17;;;8.88;;
59052;SDS011;44843;44.728;10.396;2024-02-04T03:05:33;17.23;;;8.70;;
59052;SDS011;44843;44.728;10.396;2024-02-04T03:07:58;14.95;;;8.18;;
59052;SDS011;44843;44.728;10.396;2024-02-04T03:10:24;17.15;;;8.40;;
59052;SDS011;44843;44.728;10.396;2024-02-04T03:12:49;17.90;;;9.10;;
59052;SDS011;44843;44.728;10.396;2024-02-04T03:15:14;14.68;;;8.18;;
59052;SDS011;44843;44.728;10.396;2024-02-04T03:17:40;16.88;;;7.40;;
59052;SDS011;44843;44.728;10.396;2024-02-04T03:20:08;12.60;;;6.93;;
59052;SDS011;44843;44.728;10.396;2024-02-04T03:22:34;15.05;;;7.05;;
59052;SDS011;44843;44.728;10.396;2024-02-04T03:24:59;12.68;;;7.60;;
59052;SDS011;44843;44.728;10.396;2024-02-04T03:27:24;15.48;;;7.70;;
59052;SDS011;44843;44.728;10.396;2024-02-04T03:29:50;11.90;;;6.95;;
59052;SDS011;44843;44.728;10.396;2024-02-04T03:32:15;13.40;;;6.40;;
59052;SDS011;44843;44.728;10.396;2024-02-04T03:34:41;14.40;;;7.07;;
59052;SDS011;44843;44.728;10.396;2024-02-04T03:37:07;12.57;;;6.57;;
59052;SDS011;44843;44.728;10.396;2024-02-04T03:39:32;14.32;;;6.40;;
59052;SDS011;44843;44.728;10.396;2024-02-04T03:41:57;11.23;;;7.30;;
59052;SDS011;44843;44.728;10.396;2024-02-04T03:44:23;11.90;;;6.38;;
59052;SDS011;44843;44.728;10.396;2024-02-04T03:46:49;14.18;;;7.28;;
59052;SDS011;44843;44.728;10.396;2024-02-04T03:49:15;11.80;;;6.65;;
59052;SDS011;44843;44.728;10.396;2024-02-04T03:51:41;12.63;;;6.68;;
59052;SDS011;44843;44.728;10.396;2024-02-04T03:54:06;12.02;;;6.30;;
59052;SDS011;44843;44.728;10.396;2024-02-04T03:56:31;12.20;;;6.32;;
59052;SDS011;44843;44.728;10.396;2024-02-04T03:58:57;11.77;;;6.20;;
59052;SDS011;44843;44.728;10.396;2024-02-04T04:01:22;10.75;;;6.07;;
59052;SDS011;44843;44.728;10.396;2024-02-04T04:03:48;10.95;;;6.13;;
59052;SDS011;44843;44.728;10.396;2024-02-04T04:06:14;13.30;;;6.85;;
59052;SDS011;44843;44.728;10.396;2024-02-04T04:08:40;14.70;;;6.43;;
59052;SDS011;44843;44.728;10.396;2024-02-04T04:11:07;12.55;;;6.75;;
59052;SDS011;44843;44.728;10.396;2024-02-04T04:13:33;11.25;;;6.20;;
59052;SDS011;44843;44.728;10.396;2024-02-04T04:16:00;12.05;;;6.10;;
59052;SDS011;44843;44.728;10.396;2024-02-04T04:18:26;13.38;;;6.78;;
59052;SDS011;44843;44.728;10.396;2024-02-04T04:20:51;11.00;;;6.25;;
59052;SDS011;44843;44.728;10.396;2024-02-04T04:23:16;10.95;;;6.03;;
59052;SDS011;44843;44.728;10.396;2024-02-04T04:25:42;10.90;;;5.70;;
59052;SDS011;44843;44.728;10.396;2024-02-04T04:28:07;13.90;;;6.15;;
59052;SDS011;44843;44.728;10.396;2024-02-04T04:30:32;10.27;;;5.60;;
59052;SDS011;44843;44.728;10.396;2024-02-04T04:32:58;12.07;;;6.00;;
59052;SDS011;44843;44.728;10.396;2024-02-04T04:35:24;12.32;;;5.35;;
59052;SDS011;44843;44.728;10.396;2024-02-04T04:37:49;13.07;;;6.75;;
59052;SDS011;44843;44.728;10.396;2024-02-04T04:40:15;12.35;;;6.10;;
59052;SDS011;44843;44.728;10.396;2024-02-04T04:42:40;11.82;;;6.45;;
59052;SDS011;44843;44.728;10.396;2024-02-04T04:45:06;15.00;;;6.70;;
59052;SDS011;44843;44.728;10.396;2024-02-04T04:47:33;13.65;;;7.28;;
59052;SDS011;44843;44.728;10.396;2024-02-04T04:49:58;13.20;;;6.40;;
59052;SDS011;44843;44.728;10.396;2024-02-04T04:52:25;13.18;;;6.63;;
59052;SDS011;44843;44.728;10.396;2024-02-04T04:54:50;12.75;;;6.63;;
59052;SDS011;44843;44.728;10.396;2024-02-04T04:57:16;17.00;;;7.18;;
59052;SDS011;44843;44.728;10.396;2024-02-04T04:59:41;13.45;;;6.55;;
59052;SDS011;44843;44.728;10.396;2024-02-04T05:02:07;12.52;;;6.72;;
59052;SDS011;44843;44.728;10.396;2024-02-04T05:04:32;12.82;;;7.07;;
59052;SDS011;44843;44.728;10.396;2024-02-04T05:06:57;14.38;;;7.00;;
59052;SDS011;44843;44.728;10.396;2024-02-04T05:09:23;12.07;;;6.57;;
59052;SDS011;44843;44.728;10.396;2024-02-04T05:11:48;13.05;;;7.25;;
59052;SDS011;44843;44.728;10.396;2024-02-04T05:14:13;15.20;;;6.38;;
59052;SDS011;44843;44.728;10.396;2024-02-04T05:16:39;13.45;;;6.53;;
59052;SDS011;44843;44.728;10.396;2024-02-04T05:19:04;11.38;;;6.30;;
59052;SDS011;44843;44.728;10.396;2024-02-04T05:21:30;10.70;;;6.38;;
59052;SDS011;44843;44.728;10.396;2024-02-04T05:23:55;12.38;;;7.60;;
59052;SDS011;44843;44.728;10.396;2024-02-04T05:26:20;10.30;;;6.38;;
59052;SDS011;44843;44.728;10.396;2024-02-04T05:28:46;13.55;;;6.53;;
59052;SDS011;44843;44.728;10.396;2024-02-04T05:31:11;10.93;;;6.63;;
59052;SDS011;44843;44.728;10.396;2024-02-04T05:33:37;9.93;;;5.88;;
59052;SDS011;44843;44.728;10.396;2024-02-04T05:36:02;11.63;;;6.82;;
59052;SDS011;44843;44.728;10.396;2024-02-04T05:38:28;13.50;;;6.32;;
59052;SDS011;44843;44.728;10.396;2024-02-04T05:40:54;13.77;;;7.10;;
59052;SDS011;44843;44.728;10.396;2024-02-04T05:43:19;12.88;;;5.97;;
59052;SDS011;44843;44.728;10.396;2024-02-04T05:45:45;9.65;;;6.13;;
59052;SDS011;44843;44.728;10.396;2024-02-04T05:48:10;10.18;;;5.03;;
59052;SDS011;44843;44.728;10.396;2024-02-04T05:50:35;12.23;;;5.85;;
59052;SDS011;44843;44.728;10.396;2024-02-04T05:53:01;10.75;;;5.30;;
59052;SDS011;44843;44.728;10.396;2024-02-04T05:55:28;11.85;;;5.50;;
59052;SDS011;44843;44.728;10.396;2024-02-04T05:57:53;13.02;;;5.82;;
59052;SDS011;44843;44.728;10.396;2024-02-04T06:00:19;11.32;;;5.53;;
59052;SDS011;44843;44.728;10.396;2024-02-04T06:02:44;12.52;;;5.88;;
59052;SDS011;44843;44.728;10.396;2024-02-04T06:05:11;16.60;;;6.35;;
59052;SDS011;44843;44.728;10.396;2024-02-04T06:07:36;9.63;;;6.25;;
59052;SDS011;44843;44.728;10.396;2024-02-04T06:10:02;13.02;;;6.50;;
59052;SDS011;44843;44.728;10.396;2024-02-04T06:12:28;12.45;;;7.20;;
59052;SDS011;44843;44.728;10.396;2024-02-04T06:14:54;12.00;;;6.40;;
59052;SDS011;44843;44.728;10.396;2024-02-04T06:17:20;12.38;;;6.65;;
59052;SDS011;44843;44.728;10.396;2024-02-04T06:19:45;13.13;;;5.97;;
59052;SDS011;44843;44.728;10.396;2024-02-04T06:22:10;8.85;;;5.80;;
59052;SDS011;44843;44.728;10.396;2024-02-04T06:24:36;9.30;;;5.25;;
59052;SDS011;44843;44.728;10.396;2024-02-04T06:27:04;14.32;;;6.25;;
59052;SDS011;44843;44.728;10.396;2024-02-04T06:29:30;13.48;;;6.15;;
59052;SDS011;44843;44.728;10.396;2024-02-04T06:31:55;12.50;;;5.97;;
59052;SDS011;44843;44.728;10.396;2024-02-04T06:34:21;11.73;;;6.45;;
59052;SDS011;44843;44.728;10.396;2024-02-04T06:36:46;12.90;;;5.82;;
59052;SDS011;44843;44.728;10.396;2024-02-04T06:39:12;16.63;;;7.15;;
59052;SDS011;44843;44.728;10.396;2024-02-04T06:41:38;14.77;;;7.32;;
59052;SDS011;44843;44.728;10.396;2024-02-04T06:44:04;15.07;;;6.47;;
59052;SDS011;44843;44.728;10.396;2024-02-04T06:46:30;11.02;;;5.97;;
59052;SDS011;44843;44.728;10.396;2024-02-04T06:48:55;13.02;;;6.10;;
59052;SDS011;44843;44.728;10.396;2024-02-04T06:51:21;11.80;;;6.47;;
59052;SDS011;44843;44.728;10.396;2024-02-04T06:53:46;12.93;;;6.70;;
59052;SDS011;44843;44.728;10.396;2024-02-04T06:56:12;13.57;;;5.88;;
59052;SDS011;44843;44.728;10.396;2024-02-04T06:58:38;13.38;;;5.70;;
59052;SDS011;44843;44.728;10.396;2024-02-04T07:01:03;12.77;;;5.90;;
59052;SDS011;44843;44.728;10.396;2024-02-04T07:03:29;11.10;;;5.60;;
59052;SDS011;44843;44.728;10.396;2024-02-04T07:05:55;11.05;;;6.18;;
59052;SDS011;44843;44.728;10.396;2024-02-04T07:08:20;13.52;;;5.80;;
59052;SDS011;44843;44.728;10.396;2024-02-04T07:10:46;8.68;;;5.45;;
59052;SDS011;44843;44.728;10.396;2024-02-04T07:13:11;13.68;;;6.90;;
59052;SDS011;44843;44.728;10.396;2024-02-04T07:15:37;12.93;;;6.68;;
59052;SDS011;44843;44.728;10.396;2024-02-04T07:18:03;13.70;;;7.47;;
59052;SDS011;44843;44.728;10.396;2024-02-04T07:20:29;12.23;;;7.25;;
59052;SDS011;44843;44.728;10.396;2024-02-04T07:22:54;17.05;;;8.85;;
59052;SDS011;44843;44.728;10.396;2024-02-04T07:25:19;16.38;;;7.72;;
59052;SDS011;44843;44.728;10.396;2024-02-04T07:27:45;15.90;;;8.75;;
59052;SDS011;44843;44.728;10.396;2024-02-04T07:30:11;16.70;;;9.27;;
59052;SDS011;44843;44.728;10.396;2024-02-04T07:32:36;19.45;;;9.93;;
59052;SDS011;44843;44.728;10.396;2024-02-04T07:35:02;18.38;;;9.30;;
59052;SDS011;44843;44.728;10.396;2024-02-04T07:37:28;20.02;;;10.55;;
59052;SDS011;44843;44.728;10.396;2024-02-04T07:39:53;23.45;;;12.10;;
59052;SDS011;44843;44.728;10.396;2024-02-04T07:42:19;22.88;;;10.50;;
59052;SDS011;44843;44.728;10.396;2024-02-04T07:44:44;20.13;;;11.10;;
59052;SDS011;44843;44.728;10.396;2024-02-04T07:47:10;26.48;;;13.50;;
59052;SDS011;44843;44.728;10.396;2024-02-04T07:49:36;23.25;;;12.30;;
59052;SDS011;44843;44.728;10.396;2024-02-04T07:52:01;23.65;;;12.13;;
59052;SDS011;44843;44.728;10.396;2024-02-04T07:54:27;23.08;;;12.68;;
59052;SDS011;44843;44.728;10.396;2024-02-04T07:56:52;20.42;;;11.30;;
59052;SDS011;44843;44.728;10.396;2024-02-04T07:59:18;23.60;;;12.50;;
59052;SDS011;44843;44.728;10.396;2024-02-04T08:01:43;18.10;;;9.88;;
59052;SDS011;44843;44.728;10.396;2024-02-04T08:04:08;20.77;;;10.52;;
59052;SDS011;44843;44.728;10.396;2024-02-04T08:06:35;21.77;;;10.95;;
59052;SDS011;44843;44.728;10.396;2024-02-04T08:09:02;20.02;;;11.55;;
59052;SDS011;44843;44.728;10.396;2024-02-04T08:11:28;24.42;;;10.85;;
59052;SDS011;44843;44.728;10.396;2024-02-04T08:13:53;24.52;;;11.15;;
59052;SDS011;44843;44.728;10.396;2024-02-04T08:16:19;20.17;;;10.20;;
59052;SDS011;44843;44.728;10.396;2024-02-04T08:18:45;23.08;;;10.93;;
59052;SDS011;44843;44.728;10.396;2024-02-04T08:21:11;18.88;;;10.02;;
59052;SDS011;44843;44.728;10.396;2024-02-04T08:23:37;22.65;;;10.88;;
59052;SDS011;44843;44.728;10.396;2024-02-04T08:26:04;18.20;;;10.43;;
59052;SDS011;44843;44.728;10.396;2024-02-04T08:28:30;18.05;;;9.77;;
59052;SDS011;44843;44.728;10.396;2024-02-04T08:30:55;21.77;;;10.55;;
59052;SDS011;44843;44.728;10.396;2024-02-04T08:33:21;21.80;;;12.30;;
59052;SDS011;44843;44.728;10.396;2024-02-04T08:35:47;21.38;;;11.75;;
59052;SDS011;44843;44.728;10.396;2024-02-04T08:38:13;20.63;;;12.35;;
59052;SDS011;44843;44.728;10.396;2024-02-04T08:40:38;22.50;;;13.32;;
59052;SDS011;44843;44.728;10.396;2024-02-04T08:43:04;25.42;;;12.02;;
59052;SDS011;44843;44.728;10.396;2024-02-04T08:45:29;21.52;;;11.60;;
59052;SDS011;44843;44.728;10.396;2024-02-04T08:47:54;23.52;;;11.63;;
59052;SDS011;44843;44.728;10.396;2024-02-04T08:50:20;20.00;;;11.68;;
59052;SDS011;44843;44.728;10.396;2024-02-04T08:52:45;21.77;;;11.90;;
59052;SDS011;44843;44.728;10.396;2024-02-04T08:55:10;24.02;;;13.00;;
59052;SDS011;44843;44.728;10.396;2024-02-04T08:57:36;25.50;;;12.13;;
59052;SDS011;44843;44.728;10.396;2024-02-04T09:00:01;23.30;;;12.13;;
59052;SDS011;44843;44.728;10.396;2024-02-04T09:02:27;25.95;;;13.73;;
59052;SDS011;44843;44.728;10.396;2024-02-04T09:04:52;27.58;;;13.80;;
59052;SDS011;44843;44.728;10.396;2024-02-04T09:07:19;24.33;;;13.45;;
59052;SDS011;44843;44.728;10.396;2024-02-04T09:09:45;26.17;;;13.05;;
59052;SDS011;44843;44.728;10.396;2024-02-04T09:12:10;25.45;;;14.15;;
59052;SDS011;44843;44.728;10.396;2024-02-04T09:14:35;29.75;;;15.48;;
59052;SDS011;44843;44.728;10.396;2024-02-04T09:17:04;38.80;;;20.13;;
59052;SDS011;44843;44.728;10.396;2024-02-04T09:19:31;41.67;;;21.83;;
59052;SDS011;44843;44.728;10.396;2024-02-04T09:21:56;44.10;;;21.73;;
59052;SDS011;44843;44.728;10.396;2024-02-04T09:24:22;46.03;;;23.30;;
59052;SDS011;44843;44.728;10.396;2024-02-04T09:26:47;66.10;;;31.67;;
59052;SDS011;44843;44.728;10.396;2024-02-04T09:29:13;50.40;;;26.58;;
59052;SDS011;44843;44.728;10.396;2024-02-04T09:31:39;54.25;;;26.80;;
59052;SDS011;44843;44.728;10.396;2024-02-04T09:34:04;52.92;;;28.00;;
59052;SDS011;44843;44.728;10.396;2024-02-04T09:36:30;56.05;;;28.15;;
59052;SDS011;44843;44.728;10.396;2024-02-04T09:38:55;81.38;;;36.85;;
59052;SDS011;44843;44.728;10.396;2024-02-04T09:41:21;53.85;;;26.23;;
59052;SDS011;44843;44.728;10.396;2024-02-04T09:43:48;51.08;;;24.55;;
59052;SDS011;44843;44.728;10.396;2024-02-04T09:46:15;43.15;;;23.10;;
59052;SDS011;44843;44.728;10.396;2024-02-04T09:48:41;45.03;;;23.70;;
59052;SDS011;44843;44.728;10.396;2024-02-04T09:51:09;43.95;;;23.15;;
59052;SDS011;44843;44.728;10.396;2024-02-04T09:53:35;47.38;;;23.42;;
59052;SDS011;44843;44.728;10.396;2024-02-04T09:56:02;62.63;;;26.73;;
59052;SDS011;44843;44.728;10.396;2024-02-04T09:58:29;93.40;;;41.95;;
59052;SDS011;44843;44.728;10.396;2024-02-04T10:00:54;49.22;;;24.90;;
59052;SDS011;44843;44.728;10.396;2024-02-04T10:03:20;56.00;;;26.05;;
59052;SDS011;44843;44.728;10.396;2024-02-04T10:05:46;49.95;;;26.50;;
59052;SDS011;44843;44.728;10.396;2024-02-04T10:08:12;86.55;;;37.33;;
59052;SDS011;44843;44.728;10.396;2024-02-04T10:10:38;53.97;;;25.33;;
59052;SDS011;44843;44.728;10.396;2024-02-04T10:13:07;48.88;;;24.13;;
59052;SDS011;44843;44.728;10.396;2024-02-04T10:15:34;41.85;;;23.20;;
59052;SDS011;44843;44.728;10.396;2024-02-04T10:17:59;45.92;;;23.15;;
59052;SDS011;44843;44.728;10.396;2024-02-04T10:20:28;41.83;;;22.23;;
59052;SDS011;44843;44.728;10.396;2024-02-04T10:22:54;42.53;;;22.23;;
59052;SDS011;44843;44.728;10.396;2024-02-04T10:25:20;45.63;;;24.50;;
59052;SDS011;44843;44.728;10.396;2024-02-04T10:27:46;41.08;;;22.33;;
59052;SDS011;44843;44.728;10.396;2024-02-04T10:30:12;40.88;;;21.85;;
59052;SDS011;44843;44.728;10.396;2024-02-04T10:32:39;45.90;;;23.05;;
59052;SDS011;44843;44.728;10.396;2024-02-04T10:35:04;52.42;;;24.27;;
59052;SDS011;44843;44.728;10.396;2024-02-04T10:37:30;43.13;;;23.45;;
59052;SDS011;44843;44.728;10.396;2024-02-04T10:39:55;41.78;;;21.27;;
59052;SDS011;44843;44.728;10.396;2024-02-04T10:42:23;45.70;;;22.30;;
59052;SDS011;44843;44.728;10.396;2024-02-04T10:44:51;40.88;;;21.85;;
59052;SDS011;44843;44.728;10.396;2024-02-04T10:47:20;47.58;;;24.55;;
59052;SDS011;44843;44.728;10.396;2024-02-04T10:49:51;43.30;;;22.95;;
59052;SDS011;44843;44.728;10.396;2024-02-04T10:52:20;47.22;;;22.42;;
59052;SDS011;44843;44.728;10.396;2024-02-04T10:54:48;41.15;;;22.02;;
59052;SDS011;44843;44.728;10.396;2024-02-04T10:57:16;40.78;;;22.23;;
59052;SDS011;44843;44.728;10.396;2024-02-04T10:59:45;43.22;;;21.50;;
59052;SDS011;44843;44.728;10.396;2024-02-04T11:02:12;40.60;;;21.33;;
59052;SDS011;44843;44.728;10.396;2024-02-04T11:04:39;43.45;;;23.63;;
59052;SDS011;44843;44.728;10.396;2024-02-04T11:07:07;39.67;;;21.73;;
59052;SDS011;44843;44.728;10.396;2024-02-04T11:09:35;42.33;;;23.35;;
59052;SDS011;44843;44.728;10.396;2024-02-04T11:12:01;45.42;;;23.70;;
59052;SDS011;44843;44.728;10.396;2024-02-04T11:14:31;42.60;;;22.23;;
59052;SDS011;44843;44.728;10.396;2024-02-04T11:27:50;46.43;;;25.43;;
59052;SDS011;44843;44.728;10.396;2024-02-04T11:30:15;46.75;;;24.50;;
59052;SDS011;44843;44.728;10.396;2024-02-04T11:32:41;52.10;;;26.10;;
59052;SDS011;44843;44.728;10.396;2024-02-04T11:35:07;46.40;;;23.35;;
59052;SDS011;44843;44.728;10.396;2024-02-04T11:37:33;47.00;;;23.75;;
59052;SDS011;44843;44.728;10.396;2024-02-04T11:39:59;41.63;;;21.42;;
59052;SDS011;44843;44.728;10.396;2024-02-04T11:42:24;41.20;;;22.40;;
59052;SDS011;44843;44.728;10.396;2024-02-04T11:44:50;38.10;;;20.92;;
59052;SDS011;44843;44.728;10.396;2024-02-04T11:47:25;44.60;;;22.38;;
59052;SDS011;44843;44.728;10.396;2024-02-04T11:49:54;42.63;;;22.25;;
59052;SDS011;44843;44.728;10.396;2024-02-04T11:52:20;48.00;;;23.48;;
59052;SDS011;44843;44.728;10.396;2024-02-04T11:54:46;41.63;;;21.58;;
59052;SDS011;44843;44.728;10.396;2024-02-04T11:57:12;40.05;;;22.23;;
59052;SDS011;44843;44.728;10.396;2024-02-04T11:59:40;39.35;;;21.70;;
59052;SDS011;44843;44.728;10.396;2024-02-04T12:02:07;42.42;;;22.45;;
59052;SDS011;44843;44.728;10.396;2024-02-04T12:04:33;39.65;;;21.48;;
59052;SDS011;44843;44.728;10.396;2024-02-04T12:06:59;40.92;;;22.00;;
59052;SDS011;44843;44.728;10.396;2024-02-04T12:09:26;41.92;;;23.60;;
59052;SDS011;44843;44.728;10.396;2024-02-04T12:11:51;41.15;;;21.95;;
59052;SDS011;44843;44.728;10.396;2024-02-04T12:14:19;40.08;;;22.10;;
59052;SDS011;44843;44.728;10.396;2024-02-04T12:16:44;41.35;;;21.48;;
59052;SDS011;44843;44.728;10.396;2024-02-04T12:19:10;44.55;;;23.80;;
59052;SDS011;44843;44.728;10.396;2024-02-04T12:21:36;41.05;;;22.83;;
59052;SDS011;44843;44.728;10.396;2024-02-04T12:24:02;45.47;;;22.10;;
59052;SDS011;44843;44.728;10.396;2024-02-04T12:26:28;46.38;;;24.48;;
59052;SDS011;44843;44.728;10.396;2024-02-04T12:28:55;51.35;;;24.05;;
59052;SDS011;44843;44.728;10.396;2024-02-04T12:31:21;44.50;;;23.65;;
59052;SDS011;44843;44.728;10.396;2024-02-04T12:33:57;44.50;;;22.95;;
59052;SDS011;44843;44.728;10.396;2024-02-04T12:36:27;43.72;;;22.42;;
59052;SDS011;44843;44.728;10.396;2024-02-04T12:38:53;45.22;;;23.02;;
59052;SDS011;44843;44.728;10.396;2024-02-04T12:41:20;44.15;;;22.67;;
59052;SDS011;44843;44.728;10.396;2024-02-04T12:43:49;46.38;;;23.60;;
59052;SDS011;44843;44.728;10.396;2024-02-04T12:46:18;43.13;;;23.27;;
59052;SDS011;44843;44.728;10.396;2024-02-04T12:48:44;42.90;;;22.40;;
59052;SDS011;44843;44.728;10.396;2024-02-04T12:51:10;41.95;;;22.27;;
59052;SDS011;44843;44.728;10.396;2024-02-04T12:53:36;40.72;;;21.55;;
59052;SDS011;44843;44.728;10.396;2024-02-04T12:56:02;43.42;;;21.70;;
59052;SDS011;44843;44.728;10.396;2024-02-04T12:58:28;42.70;;;23.38;;
59052;SDS011;44843;44.728;10.396;2024-02-04T13:01:00;44.30;;;24.75;;
59052;SDS011;44843;44.728;10.396;2024-02-04T13:03:30;43.28;;;24.25;;
59052;SDS011;44843;44.728;10.396;2024-02-04T13:05:58;39.40;;;23.13;;
59052;SDS011;44843;44.728;10.396;2024-02-04T13:08:24;45.50;;;23.98;;
59052;SDS011;44843;44.728;10.396;2024-02-04T13:10:56;41.55;;;23.70;;
59052;SDS011;44843;44.728;10.396;2024-02-04T13:13:22;44.28;;;23.80;;
59052;SDS011;44843;44.728;10.396;2024-02-04T13:15:54;44.70;;;23.15;;
59052;SDS011;44843;44.728;10.396;2024-02-04T13:18:19;49.85;;;24.73;;
59052;SDS011;44843;44.728;10.396;2024-02-04T13:20:45;43.22;;;24.42;;
59052;SDS011;44843;44.728;10.396;2024-02-04T13:23:11;41.85;;;23.15;;
59052;SDS011;44843;44.728;10.396;2024-02-04T13:25:36;44.83;;;25.90;;
59052;SDS011;44843;44.728;10.396;2024-02-04T13:28:02;43.70;;;23.98;;
59052;SDS011;44843;44.728;10.396;2024-02-04T13:30:28;41.70;;;24.08;;
59052;SDS011;44843;44.728;10.396;2024-02-04T13:32:54;44.58;;;22.95;;
59052;SDS011;44843;44.728;10.396;2024-02-04T13:35:21;46.67;;;23.88;;
59052;SDS011;44843;44.728;10.396;2024-02-04T13:37:47;39.55;;;23.95;;
59052;SDS011;44843;44.728;10.396;2024-02-04T13:40:15;47.85;;;23.65;;
59052;SDS011;44843;44.728;10.396;2024-02-04T13:42:40;40.47;;;23.67;;
59052;SDS011;44843;44.728;10.396;2024-02-04T13:45:06;42.38;;;24.42;;
59052;SDS011;44843;44.728;10.396;2024-02-04T13:47:32;36.92;;;21.73;;
59052;SDS011;44843;44.728;10.396;2024-02-04T13:50:17;43.38;;;24.23;;
59052;SDS011;44843;44.728;10.396;2024-02-04T13:52:43;41.40;;;23.38;;
59052;SDS011;44843;44.728;10.396;2024-02-04T13:55:08;41.00;;;22.42;;
59052;SDS011;44843;44.728;10.396;2024-02-04T13:57:33;41.50;;;22.75;;
59052;SDS011;44843;44.728;10.396;2024-02-04T13:59:59;45.75;;;23.88;;
59052;SDS011;44843;44.728;10.396;2024-02-04T14:02:25;48.22;;;24.58;;
59052;SDS011;44843;44.728;10.396;2024-02-04T14:04:54;42.35;;;24.48;;
59052;SDS011;44843;44.728;10.396;2024-02-04T14:07:19;40.63;;;22.20;;
59052;SDS011;44843;44.728;10.396;2024-02-04T14:09:45;39.95;;;22.77;;
59052;SDS011;44843;44.728;10.396;2024-02-04T14:12:11;40.35;;;23.05;;
59052;SDS011;44843;44.728;10.396;2024-02-04T14:14:37;41.70;;;24.30;;
59052;SDS011;44843;44.728;10.396;2024-02-04T14:17:04;44.97;;;25.30;;
59052;SDS011;44843;44.728;10.396;2024-02-04T14:19:30;39.67;;;22.77;;
59052;SDS011;44843;44.728;10.396;2024-02-04T14:21:55;41.58;;;23.90;;
59052;SDS011;44843;44.728;10.396;2024-02-04T14:24:20;41.60;;;24.15;;
59052;SDS011;44843;44.728;10.396;2024-02-04T14:26:46;44.13;;;23.08;;